sensor_id;sensor_type;location;lat;lon;timestamp;P1;durP1;ratioP1;P2;durP2;ratioP2
59770;SDS011;45649;53.014;6.600;2023-08-24T00:00:46;2.83;;;2.00;;
59770;SDS011;45649;53.014;6.600;2023-08-24T00:03:12;2.90;;;2.07;;
59770;SDS011;45649;53.014;6.600;2023-08-24T00:05:38;2.40;;;2.07;;
59770;SDS011;45649;53.014;6.600;2023-08-24T00:08:08;2.20;;;2.00;;
59770;SDS011;45649;53.014;6.600;2023-08-24T00:10:35;3.23;;;2.40;;
59770;SDS011;45649;53.014;6.600;2023-08-24T00:13:01;2.83;;;2.53;;
59770;SDS011;45649;53.014;6.600;2023-08-24T00:15:27;2.23;;;2.13;;
59770;SDS011;45649;53.014;6.600;2023-08-24T00:17:54;2.60;;;2.40;;
59770;SDS011;45649;53.014;6.600;2023-08-24T00:20:20;3.73;;;2.73;;
59770;SDS011;45649;53.014;6.600;2023-08-24T00:22:46;3.00;;;2.60;;
59770;SDS011;45649;53.014;6.600;2023-08-24T00:25:12;3.13;;;2.40;;
59770;SDS011;45649;53.014;6.600;2023-08-24T00:27:39;4.13;;;2.50;;
59770;SDS011;45649;53.014;6.600;2023-08-24T00:30:06;2.97;;;2.10;;
59770;SDS011;45649;53.014;6.600;2023-08-24T00:32:32;2.57;;;2.17;;
59770;SDS011;45649;53.014;6.600;2023-08-24T00:35:00;3.33;;;3.13;;
59770;SDS011;45649;53.014;6.600;2023-08-24T00:37:26;3.10;;;2.80;;
59770;SDS011;45649;53.014;6.600;2023-08-24T00:39:53;2.80;;;2.60;;
59770;SDS011;45649;53.014;6.600;2023-08-24T00:42:20;2.83;;;2.60;;
59770;SDS011;45649;53.014;6.600;2023-08-24T00:44:48;3.58;;;2.78;;
59770;SDS011;45649;53.014;6.600;2023-08-24T00:47:14;2.40;;;2.20;;
59770;SDS011;45649;53.014;6.600;2023-08-24T00:49:40;2.00;;;1.83;;
59770;SDS011;45649;53.014;6.600;2023-08-24T00:52:06;2.10;;;1.90;;
59770;SDS011;45649;53.014;6.600;2023-08-24T00:54:33;2.87;;;2.00;;
59770;SDS011;45649;53.014;6.600;2023-08-24T00:56:59;3.27;;;2.00;;
59770;SDS011;45649;53.014;6.600;2023-08-24T00:59:25;2.20;;;2.00;;
59770;SDS011;45649;53.014;6.600;2023-08-24T01:01:51;1.93;;;1.83;;
59770;SDS011;45649;53.014;6.600;2023-08-24T01:04:17;2.90;;;2.70;;
59770;SDS011;45649;53.014;6.600;2023-08-24T01:06:44;2.67;;;2.40;;
59770;SDS011;45649;53.014;6.600;2023-08-24T01:09:10;2.93;;;2.60;;
59770;SDS011;45649;53.014;6.600;2023-08-24T01:11:56;1.90;;;1.80;;
59770;SDS011;45649;53.014;6.600;2023-08-24T01:14:29;2.10;;;2.00;;
59770;SDS011;45649;53.014;6.600;2023-08-24T01:16:58;2.60;;;2.50;;
59770;SDS011;45649;53.014;6.600;2023-08-24T01:21:53;3.70;;;3.40;;
59770;SDS011;45649;53.014;6.600;2023-08-24T01:24:30;3.27;;;2.83;;
59770;SDS011;45649;53.014;6.600;2023-08-24T01:26:57;3.30;;;2.87;;
59770;SDS011;45649;53.014;6.600;2023-08-24T01:29:23;3.93;;;3.40;;
59770;SDS011;45649;53.014;6.600;2023-08-24T01:31:50;4.10;;;3.80;;
59770;SDS011;45649;53.014;6.600;2023-08-24T01:34:16;4.70;;;4.30;;
59770;SDS011;45649;53.014;6.600;2023-08-24T01:36:43;4.13;;;3.87;;
59770;SDS011;45649;53.014;6.600;2023-08-24T01:39:11;4.33;;;4.03;;
59770;SDS011;45649;53.014;6.600;2023-08-24T01:41:38;4.30;;;4.00;;
59770;SDS011;45649;53.014;6.600;2023-08-24T01:44:08;3.90;;;3.60;;
59770;SDS011;45649;53.014;6.600;2023-08-24T01:46:35;3.80;;;3.50;;
59770;SDS011;45649;53.014;6.600;2023-08-24T01:49:02;3.50;;;3.30;;
59770;SDS011;45649;53.014;6.600;2023-08-24T01:51:29;3.20;;;3.00;;
59770;SDS011;45649;53.014;6.600;2023-08-24T01:53:56;3.50;;;3.20;;
59770;SDS011;45649;53.014;6.600;2023-08-24T01:56:23;3.00;;;2.80;;
59770;SDS011;45649;53.014;6.600;2023-08-24T01:58:49;3.40;;;3.20;;
59770;SDS011;45649;53.014;6.600;2023-08-24T02:04:05;3.80;;;3.50;;
59770;SDS011;45649;53.014;6.600;2023-08-24T02:06:31;3.57;;;3.27;;
59770;SDS011;45649;53.014;6.600;2023-08-24T02:08:57;3.50;;;3.30;;
59770;SDS011;45649;53.014;6.600;2023-08-24T02:11:23;3.40;;;3.10;;
59770;SDS011;45649;53.014;6.600;2023-08-24T02:13:49;3.43;;;3.20;;
59770;SDS011;45649;53.014;6.600;2023-08-24T02:16:15;3.77;;;3.50;;
59770;SDS011;45649;53.014;6.600;2023-08-24T02:18:41;3.57;;;3.27;;
59770;SDS011;45649;53.014;6.600;2023-08-24T02:21:08;3.97;;;3.57;;
59770;SDS011;45649;53.014;6.600;2023-08-24T02:23:36;4.17;;;3.73;;
59770;SDS011;45649;53.014;6.600;2023-08-24T02:26:02;3.93;;;3.63;;
59770;SDS011;45649;53.014;6.600;2023-08-24T02:28:29;4.30;;;4.00;;
59770;SDS011;45649;53.014;6.600;2023-08-24T02:30:59;4.20;;;3.90;;
59770;SDS011;45649;53.014;6.600;2023-08-24T02:33:25;4.73;;;3.90;;
59770;SDS011;45649;53.014;6.600;2023-08-24T02:35:51;3.90;;;3.60;;
59770;SDS011;45649;53.014;6.600;2023-08-24T02:38:17;4.53;;;3.73;;
59770;SDS011;45649;53.014;6.600;2023-08-24T02:40:43;4.17;;;3.73;;
59770;SDS011;45649;53.014;6.600;2023-08-24T02:43:10;5.03;;;3.70;;
59770;SDS011;45649;53.014;6.600;2023-08-24T02:45:37;4.00;;;3.70;;
59770;SDS011;45649;53.014;6.600;2023-08-24T02:48:03;4.03;;;3.73;;
59770;SDS011;45649;53.014;6.600;2023-08-24T02:50:29;5.10;;;3.93;;
59770;SDS011;45649;53.014;6.600;2023-08-24T02:52:56;4.47;;;4.07;;
59770;SDS011;45649;53.014;6.600;2023-08-24T02:55:23;4.97;;;4.13;;
59770;SDS011;45649;53.014;6.600;2023-08-24T02:57:49;7.63;;;4.67;;
59770;SDS011;45649;53.014;6.600;2023-08-24T03:00:16;4.80;;;4.30;;
59770;SDS011;45649;53.014;6.600;2023-08-24T03:02:42;6.17;;;4.60;;
59770;SDS011;45649;53.014;6.600;2023-08-24T03:05:08;6.20;;;4.70;;
59770;SDS011;45649;53.014;6.600;2023-08-24T03:07:35;5.07;;;4.60;;
59770;SDS011;45649;53.014;6.600;2023-08-24T03:10:01;6.03;;;4.20;;
59770;SDS011;45649;53.014;6.600;2023-08-24T03:12:27;4.27;;;3.87;;
59770;SDS011;45649;53.014;6.600;2023-08-24T03:14:53;4.83;;;4.43;;
59770;SDS011;45649;53.014;6.600;2023-08-24T03:17:20;4.83;;;4.43;;
59770;SDS011;45649;53.014;6.600;2023-08-24T03:19:46;4.87;;;4.47;;
59770;SDS011;45649;53.014;6.600;2023-08-24T03:22:12;5.20;;;4.73;;
59770;SDS011;45649;53.014;6.600;2023-08-24T03:24:38;5.80;;;5.20;;
59770;SDS011;45649;53.014;6.600;2023-08-24T03:27:04;6.70;;;6.20;;
59770;SDS011;45649;53.014;6.600;2023-08-24T03:29:30;5.93;;;5.50;;
59770;SDS011;45649;53.014;6.600;2023-08-24T03:31:59;5.50;;;5.00;;
59770;SDS011;45649;53.014;6.600;2023-08-24T03:34:25;5.53;;;5.13;;
59770;SDS011;45649;53.014;6.600;2023-08-24T03:36:52;6.67;;;5.43;;
59770;SDS011;45649;53.014;6.600;2023-08-24T03:39:18;6.90;;;5.83;;
59770;SDS011;45649;53.014;6.600;2023-08-24T03:41:44;5.63;;;4.90;;
59770;SDS011;45649;53.014;6.600;2023-08-24T03:44:10;5.40;;;5.00;;
59770;SDS011;45649;53.014;6.600;2023-08-24T03:46:36;6.23;;;5.27;;
59770;SDS011;45649;53.014;6.600;2023-08-24T03:49:02;5.70;;;5.20;;
59770;SDS011;45649;53.014;6.600;2023-08-24T03:51:28;5.97;;;5.47;;
59770;SDS011;45649;53.014;6.600;2023-08-24T03:53:54;5.97;;;5.47;;
59770;SDS011;45649;53.014;6.600;2023-08-24T03:56:20;6.27;;;5.20;;
59770;SDS011;45649;53.014;6.600;2023-08-24T03:58:46;5.90;;;5.33;;
59770;SDS011;45649;53.014;6.600;2023-08-24T04:01:12;7.13;;;5.77;;
59770;SDS011;45649;53.014;6.600;2023-08-24T04:03:39;6.23;;;5.73;;
59770;SDS011;45649;53.014;6.600;2023-08-24T04:06:05;6.50;;;5.70;;
59770;SDS011;45649;53.014;6.600;2023-08-24T04:08:31;6.63;;;6.03;;
59770;SDS011;45649;53.014;6.600;2023-08-24T04:10:57;7.03;;;6.03;;
59770;SDS011;45649;53.014;6.600;2023-08-24T04:13:23;8.02;;;6.85;;
59770;SDS011;45649;53.014;6.600;2023-08-24T04:15:49;5.90;;;5.40;;
59770;SDS011;45649;53.014;6.600;2023-08-24T04:18:15;5.70;;;5.20;;
59770;SDS011;45649;53.014;6.600;2023-08-24T04:20:41;6.53;;;5.63;;
59770;SDS011;45649;53.014;6.600;2023-08-24T04:23:07;6.63;;;6.03;;
59770;SDS011;45649;53.014;6.600;2023-08-24T04:25:35;6.73;;;5.93;;
59770;SDS011;45649;53.014;6.600;2023-08-24T04:28:04;7.57;;;6.80;;
59770;SDS011;45649;53.014;6.600;2023-08-24T04:30:30;7.20;;;6.67;;
59770;SDS011;45649;53.014;6.600;2023-08-24T04:32:56;8.00;;;7.27;;
59770;SDS011;45649;53.014;6.600;2023-08-24T04:35:24;7.27;;;6.60;;
59770;SDS011;45649;53.014;6.600;2023-08-24T04:37:52;7.00;;;6.30;;
59770;SDS011;45649;53.014;6.600;2023-08-24T04:40:19;6.67;;;6.07;;
59770;SDS011;45649;53.014;6.600;2023-08-24T04:42:45;5.17;;;4.80;;
59770;SDS011;45649;53.014;6.600;2023-08-24T04:45:13;6.13;;;5.53;;
59770;SDS011;45649;53.014;6.600;2023-08-24T04:47:39;5.33;;;4.93;;
59770;SDS011;45649;53.014;6.600;2023-08-24T04:50:05;5.60;;;5.10;;
59770;SDS011;45649;53.014;6.600;2023-08-24T04:52:32;6.00;;;5.37;;
59770;SDS011;45649;53.014;6.600;2023-08-24T04:54:58;6.00;;;5.50;;
59770;SDS011;45649;53.014;6.600;2023-08-24T04:57:24;6.63;;;6.03;;
59770;SDS011;45649;53.014;6.600;2023-08-24T04:59:50;7.63;;;7.00;;
59770;SDS011;45649;53.014;6.600;2023-08-24T05:02:16;7.20;;;6.70;;
59770;SDS011;45649;53.014;6.600;2023-08-24T05:04:42;6.93;;;6.23;;
59770;SDS011;45649;53.014;6.600;2023-08-24T05:07:08;6.63;;;6.03;;
59770;SDS011;45649;53.014;6.600;2023-08-24T05:09:35;6.87;;;6.17;;
59770;SDS011;45649;53.014;6.600;2023-08-24T05:12:01;6.40;;;5.80;;
59770;SDS011;45649;53.014;6.600;2023-08-24T05:14:27;6.80;;;6.30;;
59770;SDS011;45649;53.014;6.600;2023-08-24T05:16:53;6.83;;;6.23;;
59770;SDS011;45649;53.014;6.600;2023-08-24T05:19:19;6.60;;;6.03;;
59770;SDS011;45649;53.014;6.600;2023-08-24T05:21:45;6.43;;;5.93;;
59770;SDS011;45649;53.014;6.600;2023-08-24T05:24:11;6.10;;;5.57;;
59770;SDS011;45649;53.014;6.600;2023-08-24T05:26:37;6.20;;;5.80;;
59770;SDS011;45649;53.014;6.600;2023-08-24T05:29:03;7.00;;;5.77;;
59770;SDS011;45649;53.014;6.600;2023-08-24T05:31:29;6.17;;;5.60;;
59770;SDS011;45649;53.014;6.600;2023-08-24T05:33:55;7.17;;;6.50;;
59770;SDS011;45649;53.014;6.600;2023-08-24T05:36:21;6.67;;;6.17;;
59770;SDS011;45649;53.014;6.600;2023-08-24T05:38:47;7.57;;;6.80;;
59770;SDS011;45649;53.014;6.600;2023-08-24T05:41:14;6.93;;;6.33;;
59770;SDS011;45649;53.014;6.600;2023-08-24T05:43:40;7.50;;;6.80;;
59770;SDS011;45649;53.014;6.600;2023-08-24T05:46:06;6.40;;;5.90;;
59770;SDS011;45649;53.014;6.600;2023-08-24T05:48:32;7.33;;;6.47;;
59770;SDS011;45649;53.014;6.600;2023-08-24T05:50:59;7.63;;;6.80;;
59770;SDS011;45649;53.014;6.600;2023-08-24T05:53:25;5.63;;;5.20;;
59770;SDS011;45649;53.014;6.600;2023-08-24T05:55:51;7.30;;;6.60;;
59770;SDS011;45649;53.014;6.600;2023-08-24T05:58:17;7.77;;;6.40;;
59770;SDS011;45649;53.014;6.600;2023-08-24T06:00:43;7.53;;;6.83;;
59770;SDS011;45649;53.014;6.600;2023-08-24T06:03:09;7.40;;;6.80;;
59770;SDS011;45649;53.014;6.600;2023-08-24T06:05:35;8.50;;;5.77;;
59770;SDS011;45649;53.014;6.600;2023-08-24T06:08:01;7.43;;;6.10;;
59770;SDS011;45649;53.014;6.600;2023-08-24T06:10:27;7.93;;;6.13;;
59770;SDS011;45649;53.014;6.600;2023-08-24T06:12:54;8.20;;;5.93;;
59770;SDS011;45649;53.014;6.600;2023-08-24T06:15:20;6.50;;;6.00;;
59770;SDS011;45649;53.014;6.600;2023-08-24T06:17:49;8.83;;;5.80;;
59770;SDS011;45649;53.014;6.600;2023-08-24T06:20:15;9.37;;;6.40;;
59770;SDS011;45649;53.014;6.600;2023-08-24T06:22:42;8.73;;;5.50;;
59770;SDS011;45649;53.014;6.600;2023-08-24T06:25:08;5.83;;;5.23;;
59770;SDS011;45649;53.014;6.600;2023-08-24T06:27:34;8.13;;;5.30;;
59770;SDS011;45649;53.014;6.600;2023-08-24T06:30:01;7.70;;;5.50;;
59770;SDS011;45649;53.014;6.600;2023-08-24T06:32:28;8.40;;;5.60;;
59770;SDS011;45649;53.014;6.600;2023-08-24T06:34:54;5.83;;;5.17;;
59770;SDS011;45649;53.014;6.600;2023-08-24T06:37:20;6.77;;;4.90;;
59770;SDS011;45649;53.014;6.600;2023-08-24T06:39:46;5.40;;;4.87;;
59770;SDS011;45649;53.014;6.600;2023-08-24T06:42:12;6.83;;;4.57;;
59770;SDS011;45649;53.014;6.600;2023-08-24T06:44:39;7.90;;;4.97;;
59770;SDS011;45649;53.014;6.600;2023-08-24T06:47:05;4.93;;;4.30;;
59770;SDS011;45649;53.014;6.600;2023-08-24T06:49:31;8.40;;;4.60;;
59770;SDS011;45649;53.014;6.600;2023-08-24T06:51:57;5.50;;;4.43;;
59770;SDS011;45649;53.014;6.600;2023-08-24T06:54:23;7.30;;;3.93;;
59770;SDS011;45649;53.014;6.600;2023-08-24T06:56:49;7.67;;;3.83;;
59770;SDS011;45649;53.014;6.600;2023-08-24T06:59:15;5.47;;;3.83;;
59770;SDS011;45649;53.014;6.600;2023-08-24T07:01:41;9.17;;;3.90;;
59770;SDS011;45649;53.014;6.600;2023-08-24T07:04:07;9.40;;;4.23;;
59770;SDS011;45649;53.014;6.600;2023-08-24T07:06:34;5.50;;;3.80;;
59770;SDS011;45649;53.014;6.600;2023-08-24T07:09:00;6.83;;;4.67;;
59770;SDS011;45649;53.014;6.600;2023-08-24T07:11:28;6.73;;;4.70;;
59770;SDS011;45649;53.014;6.600;2023-08-24T07:13:54;8.63;;;5.57;;
59770;SDS011;45649;53.014;6.600;2023-08-24T07:16:20;9.83;;;5.23;;
59770;SDS011;45649;53.014;6.600;2023-08-24T07:18:46;7.40;;;5.20;;
59770;SDS011;45649;53.014;6.600;2023-08-24T07:21:15;7.30;;;5.33;;
59770;SDS011;45649;53.014;6.600;2023-08-24T07:23:42;10.57;;;5.77;;
59770;SDS011;45649;53.014;6.600;2023-08-24T07:26:08;6.93;;;5.43;;
59770;SDS011;45649;53.014;6.600;2023-08-24T07:28:34;7.97;;;5.80;;
59770;SDS011;45649;53.014;6.600;2023-08-24T07:31:10;7.60;;;6.30;;
59770;SDS011;45649;53.014;6.600;2023-08-24T07:33:36;7.70;;;6.00;;
59770;SDS011;45649;53.014;6.600;2023-08-24T07:36:05;8.60;;;6.50;;
59770;SDS011;45649;53.014;6.600;2023-08-24T07:38:32;7.67;;;6.63;;
59770;SDS011;45649;53.014;6.600;2023-08-24T07:40:58;14.30;;;8.20;;
59770;SDS011;45649;53.014;6.600;2023-08-24T07:46:10;9.73;;;8.10;;
59770;SDS011;45649;53.014;6.600;2023-08-24T07:48:36;9.07;;;7.73;;
59770;SDS011;45649;53.014;6.600;2023-08-24T07:51:02;11.57;;;7.67;;
59770;SDS011;45649;53.014;6.600;2023-08-24T07:53:28;11.30;;;8.17;;
59770;SDS011;45649;53.014;6.600;2023-08-24T07:55:54;10.83;;;7.60;;
59770;SDS011;45649;53.014;6.600;2023-08-24T07:58:24;10.60;;;8.13;;
59770;SDS011;45649;53.014;6.600;2023-08-24T08:00:50;8.40;;;6.63;;
59770;SDS011;45649;53.014;6.600;2023-08-24T08:03:17;11.40;;;7.60;;
59770;SDS011;45649;53.014;6.600;2023-08-24T08:05:44;11.87;;;7.23;;
59770;SDS011;45649;53.014;6.600;2023-08-24T08:08:11;9.80;;;7.50;;
59770;SDS011;45649;53.014;6.600;2023-08-24T08:10:37;9.37;;;6.17;;
59770;SDS011;45649;53.014;6.600;2023-08-24T08:13:03;6.67;;;5.97;;
59770;SDS011;45649;53.014;6.600;2023-08-24T08:15:29;9.17;;;6.40;;
59770;SDS011;45649;53.014;6.600;2023-08-24T08:17:55;7.07;;;5.97;;
59770;SDS011;45649;53.014;6.600;2023-08-24T08:20:21;8.40;;;6.13;;
59770;SDS011;45649;53.014;6.600;2023-08-24T08:22:47;8.70;;;5.53;;
59770;SDS011;45649;53.014;6.600;2023-08-24T08:25:13;8.60;;;5.80;;
59770;SDS011;45649;53.014;6.600;2023-08-24T08:27:43;8.90;;;6.43;;
59770;SDS011;45649;53.014;6.600;2023-08-24T08:30:09;8.73;;;6.83;;
59770;SDS011;45649;53.014;6.600;2023-08-24T08:32:35;11.90;;;7.37;;
59770;SDS011;45649;53.014;6.600;2023-08-24T08:35:01;12.83;;;7.07;;
59770;SDS011;45649;53.014;6.600;2023-08-24T08:37:30;8.50;;;6.10;;
59770;SDS011;45649;53.014;6.600;2023-08-24T08:39:59;11.07;;;6.60;;
59770;SDS011;45649;53.014;6.600;2023-08-24T08:42:25;10.73;;;6.90;;
59770;SDS011;45649;53.014;6.600;2023-08-24T08:44:51;10.43;;;8.03;;
59770;SDS011;45649;53.014;6.600;2023-08-24T08:47:20;7.73;;;6.47;;
59770;SDS011;45649;53.014;6.600;2023-08-24T08:49:50;9.63;;;7.80;;
59770;SDS011;45649;53.014;6.600;2023-08-24T08:52:18;7.83;;;6.67;;
59770;SDS011;45649;53.014;6.600;2023-08-24T08:54:44;8.83;;;6.90;;
59770;SDS011;45649;53.014;6.600;2023-08-24T08:57:10;8.97;;;6.80;;
59770;SDS011;45649;53.014;6.600;2023-08-24T08:59:36;9.43;;;6.43;;
59770;SDS011;45649;53.014;6.600;2023-08-24T09:02:03;7.07;;;6.17;;
59770;SDS011;45649;53.014;6.600;2023-08-24T09:04:31;8.60;;;6.87;;
59770;SDS011;45649;53.014;6.600;2023-08-24T09:06:57;9.57;;;6.40;;
59770;SDS011;45649;53.014;6.600;2023-08-24T09:09:24;7.50;;;6.63;;
59770;SDS011;45649;53.014;6.600;2023-08-24T09:11:50;10.40;;;7.07;;
59770;SDS011;45649;53.014;6.600;2023-08-24T09:14:16;7.97;;;6.40;;
59770;SDS011;45649;53.014;6.600;2023-08-24T09:16:42;7.33;;;5.50;;
59770;SDS011;45649;53.014;6.600;2023-08-24T09:19:10;9.07;;;7.43;;
59770;SDS011;45649;53.014;6.600;2023-08-24T09:21:37;9.43;;;7.10;;
59770;SDS011;45649;53.014;6.600;2023-08-24T09:24:03;9.57;;;6.27;;
59770;SDS011;45649;53.014;6.600;2023-08-24T09:26:33;7.93;;;6.67;;
59770;SDS011;45649;53.014;6.600;2023-08-24T09:29:05;7.47;;;6.27;;
59770;SDS011;45649;53.014;6.600;2023-08-24T09:31:37;8.27;;;6.07;;
59770;SDS011;45649;53.014;6.600;2023-08-24T09:34:04;8.33;;;5.53;;
59770;SDS011;45649;53.014;6.600;2023-08-24T09:36:31;6.77;;;5.77;;
59770;SDS011;45649;53.014;6.600;2023-08-24T09:39:01;9.37;;;6.77;;
59770;SDS011;45649;53.014;6.600;2023-08-24T09:41:41;9.97;;;6.60;;
59770;SDS011;45649;53.014;6.600;2023-08-24T09:44:07;9.23;;;6.40;;
59770;SDS011;45649;53.014;6.600;2023-08-24T09:46:36;9.37;;;5.77;;
59770;SDS011;45649;53.014;6.600;2023-08-24T09:49:06;7.67;;;6.87;;
59770;SDS011;45649;53.014;6.600;2023-08-24T09:51:33;8.60;;;6.27;;
59770;SDS011;45649;53.014;6.600;2023-08-24T09:54:00;7.67;;;6.43;;
59770;SDS011;45649;53.014;6.600;2023-08-24T09:56:28;10.00;;;6.20;;
59770;SDS011;45649;53.014;6.600;2023-08-24T09:58:54;8.40;;;7.07;;
59770;SDS011;45649;53.014;6.600;2023-08-24T10:01:20;8.23;;;7.00;;
59770;SDS011;45649;53.014;6.600;2023-08-24T10:03:48;7.23;;;6.53;;
59770;SDS011;45649;53.014;6.600;2023-08-24T10:06:18;7.87;;;7.03;;
59770;SDS011;45649;53.014;6.600;2023-08-24T10:08:47;10.70;;;7.70;;
59770;SDS011;45649;53.014;6.600;2023-08-24T10:11:17;9.70;;;6.57;;
59770;SDS011;45649;53.014;6.600;2023-08-24T10:16:12;10.00;;;7.93;;
59770;SDS011;45649;53.014;6.600;2023-08-24T10:18:38;8.57;;;7.53;;
59770;SDS011;45649;53.014;6.600;2023-08-24T10:21:06;9.77;;;7.57;;
59770;SDS011;45649;53.014;6.600;2023-08-24T10:23:32;10.37;;;8.13;;
59770;SDS011;45649;53.014;6.600;2023-08-24T10:26:00;8.10;;;7.03;;
59770;SDS011;45649;53.014;6.600;2023-08-24T10:28:28;8.73;;;7.37;;
59770;SDS011;45649;53.014;6.600;2023-08-24T10:30:57;8.50;;;6.70;;
59770;SDS011;45649;53.014;6.600;2023-08-24T10:33:23;8.10;;;6.07;;
59770;SDS011;45649;53.014;6.600;2023-08-24T10:35:50;10.23;;;7.77;;
59770;SDS011;45649;53.014;6.600;2023-08-24T10:38:26;8.67;;;7.20;;
59770;SDS011;45649;53.014;6.600;2023-08-24T10:40:53;9.03;;;6.80;;
59770;SDS011;45649;53.014;6.600;2023-08-24T10:43:19;11.07;;;7.63;;
59770;SDS011;45649;53.014;6.600;2023-08-24T10:48:22;11.20;;;7.47;;
59770;SDS011;45649;53.014;6.600;2023-08-24T10:53:40;7.63;;;6.93;;
59770;SDS011;45649;53.014;6.600;2023-08-24T10:56:13;10.40;;;8.03;;
59770;SDS011;45649;53.014;6.600;2023-08-24T10:58:39;8.50;;;7.57;;
59770;SDS011;45649;53.014;6.600;2023-08-24T11:01:05;11.07;;;7.07;;
59770;SDS011;45649;53.014;6.600;2023-08-24T11:03:32;7.80;;;6.87;;
59770;SDS011;45649;53.014;6.600;2023-08-24T11:05:58;8.50;;;7.40;;
59770;SDS011;45649;53.014;6.600;2023-08-24T11:11:22;8.00;;;7.13;;
59770;SDS011;45649;53.014;6.600;2023-08-24T11:14:23;9.47;;;7.57;;
59770;SDS011;45649;53.014;6.600;2023-08-24T11:16:46;13.10;;;9.07;;
59770;SDS011;45649;53.014;6.600;2023-08-24T11:19:13;10.70;;;9.30;;
59770;SDS011;45649;53.014;6.600;2023-08-24T11:21:40;11.70;;;9.20;;
59770;SDS011;45649;53.014;6.600;2023-08-24T11:24:06;10.73;;;9.63;;
59770;SDS011;45649;53.014;6.600;2023-08-24T11:26:33;10.70;;;9.60;;
59770;SDS011;45649;53.014;6.600;2023-08-24T11:29:04;10.73;;;9.47;;
59770;SDS011;45649;53.014;6.600;2023-08-24T11:31:30;9.90;;;8.90;;
59770;SDS011;45649;53.014;6.600;2023-08-24T11:33:56;10.80;;;9.70;;
59770;SDS011;45649;53.014;6.600;2023-08-24T11:36:22;10.53;;;9.50;;
59770;SDS011;45649;53.014;6.600;2023-08-24T11:38:49;11.50;;;10.30;;
59770;SDS011;45649;53.014;6.600;2023-08-24T11:41:16;11.30;;;10.10;;
59770;SDS011;45649;53.014;6.600;2023-08-24T11:43:43;10.80;;;9.80;;
59770;SDS011;45649;53.014;6.600;2023-08-24T11:46:09;12.80;;;9.67;;
59770;SDS011;45649;53.014;6.600;2023-08-24T11:48:35;11.00;;;9.77;;
59770;SDS011;45649;53.014;6.600;2023-08-24T11:51:02;10.97;;;8.73;;
59770;SDS011;45649;53.014;6.600;2023-08-24T11:53:28;11.40;;;9.07;;
59770;SDS011;45649;53.014;6.600;2023-08-24T11:55:57;9.37;;;8.57;;
59770;SDS011;45649;53.014;6.600;2023-08-24T11:58:23;10.63;;;8.53;;
59770;SDS011;45649;53.014;6.600;2023-08-24T12:00:49;11.67;;;9.10;;
59770;SDS011;45649;53.014;6.600;2023-08-24T12:03:15;10.93;;;9.57;;
59770;SDS011;45649;53.014;6.600;2023-08-24T12:05:42;10.23;;;8.67;;
59770;SDS011;45649;53.014;6.600;2023-08-24T12:08:08;9.07;;;8.27;;
59770;SDS011;45649;53.014;6.600;2023-08-24T12:10:41;12.07;;;9.23;;
59770;SDS011;45649;53.014;6.600;2023-08-24T12:13:07;10.57;;;8.70;;
59770;SDS011;45649;53.014;6.600;2023-08-24T12:15:34;9.10;;;8.30;;
59770;SDS011;45649;53.014;6.600;2023-08-24T12:18:08;9.95;;;8.55;;
59770;SDS011;45649;53.014;6.600;2023-08-24T12:20:34;8.80;;;7.77;;
59770;SDS011;45649;53.014;6.600;2023-08-24T12:23:01;13.03;;;8.10;;
59770;SDS011;45649;53.014;6.600;2023-08-24T12:25:27;8.70;;;6.80;;
59770;SDS011;45649;53.014;6.600;2023-08-24T12:28:07;8.00;;;7.20;;
59770;SDS011;45649;53.014;6.600;2023-08-24T12:30:47;8.10;;;7.30;;
59770;SDS011;45649;53.014;6.600;2023-08-24T12:33:31;8.00;;;6.23;;
59770;SDS011;45649;53.014;6.600;2023-08-24T12:35:57;9.43;;;6.67;;
59770;SDS011;45649;53.014;6.600;2023-08-24T12:38:24;7.13;;;6.50;;
59770;SDS011;45649;53.014;6.600;2023-08-24T12:40:51;12.63;;;7.20;;
59770;SDS011;45649;53.014;6.600;2023-08-24T12:43:17;11.03;;;7.10;;
59770;SDS011;45649;53.014;6.600;2023-08-24T12:45:43;7.10;;;6.47;;
59770;SDS011;45649;53.014;6.600;2023-08-24T12:48:10;8.37;;;6.60;;
59770;SDS011;45649;53.014;6.600;2023-08-24T12:50:36;9.60;;;7.07;;
59770;SDS011;45649;53.014;6.600;2023-08-24T12:53:03;8.97;;;7.10;;
59770;SDS011;45649;53.014;6.600;2023-08-24T12:55:31;10.07;;;8.17;;
59770;SDS011;45649;53.014;6.600;2023-08-24T12:57:57;8.33;;;7.53;;
59770;SDS011;45649;53.014;6.600;2023-08-24T13:00:24;7.50;;;6.90;;
59770;SDS011;45649;53.014;6.600;2023-08-24T13:02:50;8.80;;;7.70;;
59770;SDS011;45649;53.014;6.600;2023-08-24T13:05:16;8.97;;;6.77;;
59770;SDS011;45649;53.014;6.600;2023-08-24T13:07:42;10.20;;;8.50;;
59770;SDS011;45649;53.014;6.600;2023-08-24T13:10:09;7.23;;;6.57;;
59770;SDS011;45649;53.014;6.600;2023-08-24T13:12:36;9.43;;;6.93;;
59770;SDS011;45649;53.014;6.600;2023-08-24T13:15:02;7.53;;;6.40;;
59770;SDS011;45649;53.014;6.600;2023-08-24T13:17:31;6.70;;;6.10;;
59770;SDS011;45649;53.014;6.600;2023-08-24T13:19:57;7.33;;;6.23;;
59770;SDS011;45649;53.014;6.600;2023-08-24T13:22:23;7.20;;;6.47;;
59770;SDS011;45649;53.014;6.600;2023-08-24T13:24:49;7.73;;;7.00;;
59770;SDS011;45649;53.014;6.600;2023-08-24T13:27:16;8.07;;;6.70;;
59770;SDS011;45649;53.014;6.600;2023-08-24T13:29:42;6.40;;;5.90;;
59770;SDS011;45649;53.014;6.600;2023-08-24T13:32:08;7.33;;;6.63;;
59770;SDS011;45649;53.014;6.600;2023-08-24T13:34:34;8.07;;;6.13;;
59770;SDS011;45649;53.014;6.600;2023-08-24T13:37:00;10.77;;;6.70;;
59770;SDS011;45649;53.014;6.600;2023-08-24T13:39:26;7.13;;;6.50;;
59770;SDS011;45649;53.014;6.600;2023-08-24T13:41:58;8.80;;;6.80;;
59770;SDS011;45649;53.014;6.600;2023-08-24T13:44:25;7.03;;;6.17;;
59770;SDS011;45649;53.014;6.600;2023-08-24T13:46:51;9.40;;;6.67;;
59770;SDS011;45649;53.014;6.600;2023-08-24T13:49:18;7.43;;;6.73;;
59770;SDS011;45649;53.014;6.600;2023-08-24T13:51:44;6.60;;;6.00;;
59770;SDS011;45649;53.014;6.600;2023-08-24T13:54:14;8.97;;;7.23;;
59770;SDS011;45649;53.014;6.600;2023-08-24T13:56:41;8.60;;;6.83;;
59770;SDS011;45649;53.014;6.600;2023-08-24T13:59:07;10.73;;;7.40;;
59770;SDS011;45649;53.014;6.600;2023-08-24T14:01:33;8.57;;;7.07;;
59770;SDS011;45649;53.014;6.600;2023-08-24T14:03:59;8.33;;;7.37;;
59770;SDS011;45649;53.014;6.600;2023-08-24T14:06:27;7.87;;;7.07;;
59770;SDS011;45649;53.014;6.600;2023-08-24T14:08:54;10.30;;;7.30;;
59770;SDS011;45649;53.014;6.600;2023-08-24T14:11:20;12.40;;;6.93;;
59770;SDS011;45649;53.014;6.600;2023-08-24T14:13:46;8.43;;;7.43;;
59770;SDS011;45649;53.014;6.600;2023-08-24T14:16:12;8.60;;;7.17;;
59770;SDS011;45649;53.014;6.600;2023-08-24T14:18:38;7.63;;;6.73;;
59770;SDS011;45649;53.014;6.600;2023-08-24T14:21:04;6.67;;;6.07;;
59770;SDS011;45649;53.014;6.600;2023-08-24T14:23:31;6.90;;;6.30;;
59770;SDS011;45649;53.014;6.600;2023-08-24T14:25:57;7.03;;;6.33;;
59770;SDS011;45649;53.014;6.600;2023-08-24T14:28:23;8.93;;;8.00;;
59770;SDS011;45649;53.014;6.600;2023-08-24T14:30:49;8.03;;;7.23;;
59770;SDS011;45649;53.014;6.600;2023-08-24T14:33:16;9.57;;;6.90;;
59770;SDS011;45649;53.014;6.600;2023-08-24T14:35:49;8.17;;;6.73;;
59770;SDS011;45649;53.014;6.600;2023-08-24T14:38:16;7.53;;;6.70;;
59770;SDS011;45649;53.014;6.600;2023-08-24T14:40:42;8.37;;;7.27;;
59770;SDS011;45649;53.014;6.600;2023-08-24T14:43:08;9.90;;;8.33;;
59770;SDS011;45649;53.014;6.600;2023-08-24T14:45:34;9.70;;;8.70;;
59770;SDS011;45649;53.014;6.600;2023-08-24T14:48:00;8.10;;;7.30;;
59770;SDS011;45649;53.014;6.600;2023-08-24T14:50:26;9.60;;;8.70;;
59770;SDS011;45649;53.014;6.600;2023-08-24T14:52:52;9.17;;;8.37;;
59770;SDS011;45649;53.014;6.600;2023-08-24T14:55:18;9.57;;;8.67;;
59770;SDS011;45649;53.014;6.600;2023-08-24T14:57:44;7.93;;;7.20;;
59770;SDS011;45649;53.014;6.600;2023-08-24T15:00:10;11.37;;;8.70;;
59770;SDS011;45649;53.014;6.600;2023-08-24T15:02:37;9.80;;;8.90;;